Terminal Aerodrome Forecast
Issued by NWS

Current Version | Previous Version | Graphics & Text | Print | Product List | Glossary On
Versions: 1 2 3 4 5 6 7 8 9 10 11 12 13 14 15 16 17 18 19 20 21 22 23 24 25
000
FTUS41 KPBZ 220800 AAA
TAFMGW
TAF AMD
KMGW 220805Z 2208/2306 31005KT P6SM OVC006
      TEMPO 2208/2209 2SM -SHRA BR
     FM221200 34008KT P6SM OVC010
     FM221800 33010KT P6SM BKN020=

USA.gov is the U.S. government's official web portal to all federal, state and local government web resources and services.